sensor_id;sensor_type;location;lat;lon;timestamp;P1;durP1;ratioP1;P2;durP2;ratioP2
54849;SDS011;47660;51.334;12.396;2024-03-23T00:52:44;14.15;;;6.80;;
54849;SDS011;47660;51.334;12.396;2024-03-23T00:55:10;17.63;;;7.63;;
54849;SDS011;47660;51.334;12.396;2024-03-23T00:57:36;10.85;;;5.78;;
54849;SDS011;47660;51.334;12.396;2024-03-23T01:00:01;14.07;;;6.05;;
54849;SDS011;47660;51.334;12.396;2024-03-23T01:02:27;14.27;;;6.15;;
54849;SDS011;47660;51.334;12.396;2024-03-23T01:04:52;16.27;;;7.40;;
54849;SDS011;47660;51.334;12.396;2024-03-23T01:07:17;13.75;;;6.25;;
54849;SDS011;47660;51.334;12.396;2024-03-23T01:09:43;13.90;;;6.03;;
54849;SDS011;47660;51.334;12.396;2024-03-23T01:12:08;14.27;;;6.68;;
54849;SDS011;47660;51.334;12.396;2024-03-23T01:14:34;14.63;;;6.65;;
54849;SDS011;47660;51.334;12.396;2024-03-23T01:17:00;11.45;;;6.18;;
54849;SDS011;47660;51.334;12.396;2024-03-23T01:19:26;14.82;;;6.63;;
54849;SDS011;47660;51.334;12.396;2024-03-23T01:21:51;16.08;;;6.97;;
54849;SDS011;47660;51.334;12.396;2024-03-23T01:24:16;15.90;;;6.40;;
54849;SDS011;47660;51.334;12.396;2024-03-23T01:26:41;13.70;;;6.82;;
54849;SDS011;47660;51.334;12.396;2024-03-23T01:29:07;15.32;;;7.10;;
54849;SDS011;47660;51.334;12.396;2024-03-23T01:31:33;12.98;;;6.30;;
54849;SDS011;47660;51.334;12.396;2024-03-23T01:33:58;14.85;;;6.25;;
54849;SDS011;47660;51.334;12.396;2024-03-23T01:36:23;15.38;;;6.25;;
54849;SDS011;47660;51.334;12.396;2024-03-23T01:38:48;10.13;;;5.07;;
54849;SDS011;47660;51.334;12.396;2024-03-23T01:41:14;10.52;;;4.75;;
54849;SDS011;47660;51.334;12.396;2024-03-23T01:43:39;9.77;;;4.43;;
54849;SDS011;47660;51.334;12.396;2024-03-23T01:46:04;8.20;;;4.40;;
54849;SDS011;47660;51.334;12.396;2024-03-23T01:48:30;9.43;;;4.03;;
54849;SDS011;47660;51.334;12.396;2024-03-23T01:50:55;7.82;;;4.00;;
54849;SDS011;47660;51.334;12.396;2024-03-23T01:53:20;10.38;;;4.03;;
54849;SDS011;47660;51.334;12.396;2024-03-23T01:55:48;7.65;;;3.80;;
54849;SDS011;47660;51.334;12.396;2024-03-23T01:58:13;8.88;;;3.35;;
54849;SDS011;47660;51.334;12.396;2024-03-23T02:00:39;9.23;;;3.95;;
54849;SDS011;47660;51.334;12.396;2024-03-23T02:03:21;9.05;;;4.22;;
54849;SDS011;47660;51.334;12.396;2024-03-23T02:05:53;9.77;;;3.83;;
54849;SDS011;47660;51.334;12.396;2024-03-23T02:08:19;8.95;;;4.63;;
54849;SDS011;47660;51.334;12.396;2024-03-23T02:10:50;9.55;;;4.20;;
54849;SDS011;47660;51.334;12.396;2024-03-23T02:13:16;9.13;;;4.63;;
54849;SDS011;47660;51.334;12.396;2024-03-23T02:15:42;8.48;;;4.22;;
54849;SDS011;47660;51.334;12.396;2024-03-23T02:18:08;9.50;;;4.30;;
54849;SDS011;47660;51.334;12.396;2024-03-23T02:20:34;10.52;;;4.20;;
54849;SDS011;47660;51.334;12.396;2024-03-23T02:22:59;10.38;;;3.88;;
54849;SDS011;47660;51.334;12.396;2024-03-23T02:25:25;8.10;;;3.33;;
54849;SDS011;47660;51.334;12.396;2024-03-23T02:27:50;7.05;;;3.20;;
54849;SDS011;47660;51.334;12.396;2024-03-23T02:30:15;6.75;;;3.25;;
54849;SDS011;47660;51.334;12.396;2024-03-23T02:32:41;9.43;;;3.80;;
54849;SDS011;47660;51.334;12.396;2024-03-23T02:35:06;7.25;;;3.15;;
54849;SDS011;47660;51.334;12.396;2024-03-23T02:37:31;7.63;;;2.90;;
54849;SDS011;47660;51.334;12.396;2024-03-23T02:39:57;9.43;;;2.88;;
54849;SDS011;47660;51.334;12.396;2024-03-23T02:42:23;6.50;;;3.05;;
54849;SDS011;47660;51.334;12.396;2024-03-23T02:44:48;6.70;;;2.88;;
54849;SDS011;47660;51.334;12.396;2024-03-23T02:47:14;10.02;;;3.10;;
54849;SDS011;47660;51.334;12.396;2024-03-23T02:49:39;11.13;;;3.38;;
54849;SDS011;47660;51.334;12.396;2024-03-23T02:52:04;10.95;;;3.40;;
54849;SDS011;47660;51.334;12.396;2024-03-23T02:54:30;9.02;;;3.45;;
54849;SDS011;47660;51.334;12.396;2024-03-23T02:56:56;10.02;;;3.28;;
54849;SDS011;47660;51.334;12.396;2024-03-23T02:59:21;11.25;;;3.33;;
54849;SDS011;47660;51.334;12.396;2024-03-23T03:01:46;8.27;;;3.33;;
54849;SDS011;47660;51.334;12.396;2024-03-23T03:04:11;7.90;;;3.05;;
54849;SDS011;47660;51.334;12.396;2024-03-23T03:06:37;8.60;;;3.92;;
54849;SDS011;47660;51.334;12.396;2024-03-23T03:09:03;11.10;;;3.17;;
54849;SDS011;47660;51.334;12.396;2024-03-23T03:11:28;5.95;;;2.95;;
54849;SDS011;47660;51.334;12.396;2024-03-23T03:13:53;8.68;;;2.92;;
54849;SDS011;47660;51.334;12.396;2024-03-23T03:16:18;9.73;;;3.33;;
54849;SDS011;47660;51.334;12.396;2024-03-23T03:18:44;5.72;;;2.60;;
54849;SDS011;47660;51.334;12.396;2024-03-23T03:21:11;6.18;;;2.50;;
54849;SDS011;47660;51.334;12.396;2024-03-23T03:23:37;8.05;;;2.50;;
54849;SDS011;47660;51.334;12.396;2024-03-23T03:26:03;9.55;;;2.67;;
54849;SDS011;47660;51.334;12.396;2024-03-23T03:28:29;4.78;;;1.92;;
54849;SDS011;47660;51.334;12.396;2024-03-23T03:30:56;4.53;;;2.58;;
54849;SDS011;47660;51.334;12.396;2024-03-23T03:33:21;9.10;;;2.38;;
54849;SDS011;47660;51.334;12.396;2024-03-23T03:35:47;4.30;;;2.15;;
54849;SDS011;47660;51.334;12.396;2024-03-23T03:38:12;4.97;;;1.90;;
54849;SDS011;47660;51.334;12.396;2024-03-23T03:40:37;4.18;;;2.10;;
54849;SDS011;47660;51.334;12.396;2024-03-23T03:43:03;5.80;;;2.20;;
54849;SDS011;47660;51.334;12.396;2024-03-23T03:45:28;7.85;;;1.85;;
54849;SDS011;47660;51.334;12.396;2024-03-23T03:47:53;8.20;;;2.50;;
54849;SDS011;47660;51.334;12.396;2024-03-23T03:50:19;4.63;;;1.80;;
54849;SDS011;47660;51.334;12.396;2024-03-23T03:52:45;5.13;;;2.00;;
54849;SDS011;47660;51.334;12.396;2024-03-23T03:55:14;5.10;;;2.03;;
54849;SDS011;47660;51.334;12.396;2024-03-23T03:57:39;4.88;;;1.45;;
54849;SDS011;47660;51.334;12.396;2024-03-23T04:00:05;4.82;;;1.90;;
54849;SDS011;47660;51.334;12.396;2024-03-23T04:02:31;3.95;;;1.70;;
54849;SDS011;47660;51.334;12.396;2024-03-23T04:04:56;3.92;;;1.55;;
54849;SDS011;47660;51.334;12.396;2024-03-23T04:07:22;2.83;;;1.80;;
54849;SDS011;47660;51.334;12.396;2024-03-23T04:09:48;4.80;;;1.40;;
54849;SDS011;47660;51.334;12.396;2024-03-23T04:12:14;3.75;;;1.58;;
54849;SDS011;47660;51.334;12.396;2024-03-23T04:14:39;4.22;;;1.75;;
54849;SDS011;47660;51.334;12.396;2024-03-23T04:17:05;4.30;;;1.90;;
54849;SDS011;47660;51.334;12.396;2024-03-23T04:19:30;4.88;;;1.70;;
54849;SDS011;47660;51.334;12.396;2024-03-23T04:21:55;4.25;;;1.85;;
54849;SDS011;47660;51.334;12.396;2024-03-23T04:24:20;4.35;;;1.95;;
54849;SDS011;47660;51.334;12.396;2024-03-23T04:26:47;6.72;;;2.20;;
54849;SDS011;47660;51.334;12.396;2024-03-23T04:29:12;5.72;;;1.88;;
54849;SDS011;47660;51.334;12.396;2024-03-23T04:31:38;3.83;;;1.80;;
54849;SDS011;47660;51.334;12.396;2024-03-23T04:34:03;6.10;;;1.73;;
54849;SDS011;47660;51.334;12.396;2024-03-23T04:36:29;5.78;;;1.98;;
54849;SDS011;47660;51.334;12.396;2024-03-23T04:38:55;4.30;;;1.58;;
54849;SDS011;47660;51.334;12.396;2024-03-23T04:41:24;3.53;;;1.52;;
54849;SDS011;47660;51.334;12.396;2024-03-23T04:43:50;4.28;;;1.85;;
54849;SDS011;47660;51.334;12.396;2024-03-23T04:46:16;3.90;;;1.70;;
54849;SDS011;47660;51.334;12.396;2024-03-23T04:48:41;3.08;;;1.73;;
54849;SDS011;47660;51.334;12.396;2024-03-23T04:51:06;3.20;;;1.75;;
54849;SDS011;47660;51.334;12.396;2024-03-23T04:53:32;3.88;;;1.90;;
54849;SDS011;47660;51.334;12.396;2024-03-23T04:55:58;2.70;;;1.23;;
54849;SDS011;47660;51.334;12.396;2024-03-23T04:58:24;5.75;;;1.98;;
54849;SDS011;47660;51.334;12.396;2024-03-23T05:00:56;4.60;;;1.80;;
54849;SDS011;47660;51.334;12.396;2024-03-23T05:03:22;6.75;;;2.08;;
54849;SDS011;47660;51.334;12.396;2024-03-23T05:05:48;4.22;;;1.77;;
54849;SDS011;47660;51.334;12.396;2024-03-23T05:08:14;2.90;;;1.95;;
54849;SDS011;47660;51.334;12.396;2024-03-23T05:10:41;4.22;;;1.70;;
54849;SDS011;47660;51.334;12.396;2024-03-23T05:13:07;4.78;;;2.00;;
54849;SDS011;47660;51.334;12.396;2024-03-23T05:15:32;5.93;;;2.08;;
54849;SDS011;47660;51.334;12.396;2024-03-23T05:17:57;4.05;;;1.70;;
54849;SDS011;47660;51.334;12.396;2024-03-23T05:20:23;3.33;;;1.88;;
54849;SDS011;47660;51.334;12.396;2024-03-23T05:22:49;5.50;;;2.25;;
54849;SDS011;47660;51.334;12.396;2024-03-23T05:25:14;5.97;;;1.98;;
54849;SDS011;47660;51.334;12.396;2024-03-23T05:27:41;4.95;;;2.10;;
54849;SDS011;47660;51.334;12.396;2024-03-23T05:30:06;6.50;;;2.10;;
54849;SDS011;47660;51.334;12.396;2024-03-23T05:32:32;5.35;;;1.67;;
54849;SDS011;47660;51.334;12.396;2024-03-23T05:34:57;3.90;;;1.95;;
54849;SDS011;47660;51.334;12.396;2024-03-23T05:37:23;3.85;;;1.83;;
54849;SDS011;47660;51.334;12.396;2024-03-23T05:39:48;8.68;;;1.85;;
54849;SDS011;47660;51.334;12.396;2024-03-23T05:42:17;5.55;;;2.00;;
54849;SDS011;47660;51.334;12.396;2024-03-23T05:44:45;3.33;;;1.75;;
54849;SDS011;47660;51.334;12.396;2024-03-23T05:47:11;7.25;;;1.80;;
54849;SDS011;47660;51.334;12.396;2024-03-23T05:49:41;5.07;;;2.10;;
54849;SDS011;47660;51.334;12.396;2024-03-23T05:52:11;3.17;;;1.63;;
54849;SDS011;47660;51.334;12.396;2024-03-23T05:54:36;6.35;;;2.50;;
54849;SDS011;47660;51.334;12.396;2024-03-23T05:57:02;5.55;;;1.95;;
54849;SDS011;47660;51.334;12.396;2024-03-23T05:59:28;3.38;;;1.73;;
54849;SDS011;47660;51.334;12.396;2024-03-23T06:01:53;4.47;;;1.88;;
54849;SDS011;47660;51.334;12.396;2024-03-23T06:04:19;4.45;;;2.17;;
54849;SDS011;47660;51.334;12.396;2024-03-23T06:06:45;3.22;;;1.60;;
54849;SDS011;47660;51.334;12.396;2024-03-23T06:09:10;5.93;;;1.90;;
54849;SDS011;47660;51.334;12.396;2024-03-23T06:11:36;5.03;;;2.00;;
54849;SDS011;47660;51.334;12.396;2024-03-23T06:14:01;4.47;;;2.00;;
54849;SDS011;47660;51.334;12.396;2024-03-23T06:16:27;5.10;;;2.25;;
54849;SDS011;47660;51.334;12.396;2024-03-23T06:18:52;5.47;;;2.03;;
54849;SDS011;47660;51.334;12.396;2024-03-23T06:21:19;3.70;;;1.92;;
54849;SDS011;47660;51.334;12.396;2024-03-23T06:23:45;6.32;;;1.95;;
54849;SDS011;47660;51.334;12.396;2024-03-23T06:26:16;6.45;;;1.88;;
54849;SDS011;47660;51.334;12.396;2024-03-23T06:28:44;4.13;;;2.08;;
54849;SDS011;47660;51.334;12.396;2024-03-23T06:31:10;3.97;;;1.90;;
54849;SDS011;47660;51.334;12.396;2024-03-23T06:33:35;4.90;;;2.08;;
54849;SDS011;47660;51.334;12.396;2024-03-23T06:36:01;3.13;;;1.75;;
54849;SDS011;47660;51.334;12.396;2024-03-23T06:38:28;7.97;;;1.90;;
54849;SDS011;47660;51.334;12.396;2024-03-23T06:40:53;3.75;;;2.13;;
54849;SDS011;47660;51.334;12.396;2024-03-23T06:43:18;5.93;;;2.03;;
54849;SDS011;47660;51.334;12.396;2024-03-23T06:45:43;7.60;;;2.42;;
54849;SDS011;47660;51.334;12.396;2024-03-23T06:48:09;5.43;;;2.67;;
54849;SDS011;47660;51.334;12.396;2024-03-23T06:50:34;5.53;;;2.33;;
54849;SDS011;47660;51.334;12.396;2024-03-23T06:53:00;5.55;;;2.17;;
54849;SDS011;47660;51.334;12.396;2024-03-23T06:55:27;5.53;;;2.22;;
54849;SDS011;47660;51.334;12.396;2024-03-23T06:57:52;5.55;;;2.25;;
54849;SDS011;47660;51.334;12.396;2024-03-23T07:00:18;5.05;;;2.25;;
54849;SDS011;47660;51.334;12.396;2024-03-23T07:02:43;5.05;;;2.28;;
54849;SDS011;47660;51.334;12.396;2024-03-23T07:05:09;5.57;;;2.50;;
54849;SDS011;47660;51.334;12.396;2024-03-23T07:07:35;4.00;;;2.17;;
54849;SDS011;47660;51.334;12.396;2024-03-23T07:10:01;5.07;;;2.55;;
54849;SDS011;47660;51.334;12.396;2024-03-23T07:12:26;4.97;;;2.40;;
54849;SDS011;47660;51.334;12.396;2024-03-23T07:14:51;4.88;;;2.42;;
54849;SDS011;47660;51.334;12.396;2024-03-23T07:17:17;6.90;;;2.63;;
54849;SDS011;47660;51.334;12.396;2024-03-23T07:19:43;5.63;;;2.78;;
54849;SDS011;47660;51.334;12.396;2024-03-23T07:22:08;6.82;;;2.65;;
54849;SDS011;47660;51.334;12.396;2024-03-23T07:24:34;11.82;;;2.63;;
54849;SDS011;47660;51.334;12.396;2024-03-23T07:26:59;6.18;;;2.20;;
54849;SDS011;47660;51.334;12.396;2024-03-23T07:29:24;9.68;;;2.42;;
54849;SDS011;47660;51.334;12.396;2024-03-23T07:31:50;4.28;;;2.50;;
54849;SDS011;47660;51.334;12.396;2024-03-23T07:34:15;4.30;;;2.30;;
54849;SDS011;47660;51.334;12.396;2024-03-23T07:36:40;5.57;;;1.90;;
54849;SDS011;47660;51.334;12.396;2024-03-23T07:39:06;4.63;;;2.10;;
54849;SDS011;47660;51.334;12.396;2024-03-23T07:41:32;6.43;;;1.48;;
54849;SDS011;47660;51.334;12.396;2024-03-23T07:43:58;4.85;;;1.70;;
54849;SDS011;47660;51.334;12.396;2024-03-23T07:46:23;3.70;;;1.20;;
54849;SDS011;47660;51.334;12.396;2024-03-23T07:48:50;1.80;;;1.00;;
54849;SDS011;47660;51.334;12.396;2024-03-23T07:51:20;1.08;;;0.73;;
54849;SDS011;47660;51.334;12.396;2024-03-23T07:53:46;1.92;;;0.90;;
54849;SDS011;47660;51.334;12.396;2024-03-23T07:56:13;3.25;;;1.40;;
54849;SDS011;47660;51.334;12.396;2024-03-23T07:58:43;3.88;;;1.50;;
54849;SDS011;47660;51.334;12.396;2024-03-23T08:01:10;1.75;;;0.80;;
54849;SDS011;47660;51.334;12.396;2024-03-23T08:03:37;1.40;;;0.60;;
54849;SDS011;47660;51.334;12.396;2024-03-23T08:06:10;0.82;;;0.40;;
54849;SDS011;47660;51.334;12.396;2024-03-23T08:08:37;3.35;;;0.68;;
54849;SDS011;47660;51.334;12.396;2024-03-23T08:11:03;1.90;;;0.55;;
54849;SDS011;47660;51.334;12.396;2024-03-23T08:13:29;1.17;;;0.40;;
54849;SDS011;47660;51.334;12.396;2024-03-23T08:15:57;0.63;;;0.47;;
54849;SDS011;47660;51.334;12.396;2024-03-23T08:18:23;4.00;;;0.82;;
54849;SDS011;47660;51.334;12.396;2024-03-23T08:20:59;2.45;;;0.40;;
54849;SDS011;47660;51.334;12.396;2024-03-23T08:25:52;3.28;;;0.60;;
54849;SDS011;47660;51.334;12.396;2024-03-23T08:28:22;0.75;;;0.30;;
54849;SDS011;47660;51.334;12.396;2024-03-23T08:30:47;0.60;;;0.30;;
54849;SDS011;47660;51.334;12.396;2024-03-23T08:33:14;0.95;;;0.60;;
54849;SDS011;47660;51.334;12.396;2024-03-23T08:35:39;2.00;;;0.50;;
54849;SDS011;47660;51.334;12.396;2024-03-23T08:38:05;0.90;;;0.38;;
54849;SDS011;47660;51.334;12.396;2024-03-23T08:40:30;1.65;;;0.30;;
54849;SDS011;47660;51.334;12.396;2024-03-23T08:42:55;0.98;;;0.30;;
54849;SDS011;47660;51.334;12.396;2024-03-23T08:45:21;0.47;;;0.30;;
54849;SDS011;47660;51.334;12.396;2024-03-23T08:47:46;0.75;;;0.35;;
54849;SDS011;47660;51.334;12.396;2024-03-23T08:50:11;0.20;;;0.20;;
54849;SDS011;47660;51.334;12.396;2024-03-23T08:52:36;1.77;;;0.50;;
54849;SDS011;47660;51.334;12.396;2024-03-23T08:55:02;0.70;;;0.35;;
54849;SDS011;47660;51.334;12.396;2024-03-23T08:57:27;0.40;;;0.40;;
54849;SDS011;47660;51.334;12.396;2024-03-23T08:59:52;0.38;;;0.20;;
54849;SDS011;47660;51.334;12.396;2024-03-23T09:02:17;2.58;;;0.30;;
54849;SDS011;47660;51.334;12.396;2024-03-23T09:04:44;0.65;;;0.40;;
54849;SDS011;47660;51.334;12.396;2024-03-23T09:07:10;1.55;;;0.60;;
54849;SDS011;47660;51.334;12.396;2024-03-23T09:09:37;2.83;;;0.40;;
54849;SDS011;47660;51.334;12.396;2024-03-23T09:12:03;1.27;;;0.65;;
54849;SDS011;47660;51.334;12.396;2024-03-23T09:14:29;1.33;;;0.90;;
54849;SDS011;47660;51.334;12.396;2024-03-23T09:16:54;2.38;;;0.68;;
54849;SDS011;47660;51.334;12.396;2024-03-23T09:19:20;1.75;;;0.40;;
54849;SDS011;47660;51.334;12.396;2024-03-23T09:21:45;0.70;;;0.45;;
54849;SDS011;47660;51.334;12.396;2024-03-23T09:24:11;0.75;;;0.40;;
54849;SDS011;47660;51.334;12.396;2024-03-23T09:26:36;0.98;;;0.57;;
54849;SDS011;47660;51.334;12.396;2024-03-23T09:29:01;0.63;;;0.38;;
54849;SDS011;47660;51.334;12.396;2024-03-23T09:31:26;0.95;;;0.40;;
54849;SDS011;47660;51.334;12.396;2024-03-23T09:33:52;1.40;;;0.85;;
54849;SDS011;47660;51.334;12.396;2024-03-23T09:36:17;0.40;;;0.40;;
54849;SDS011;47660;51.334;12.396;2024-03-23T09:38:43;2.20;;;0.63;;
54849;SDS011;47660;51.334;12.396;2024-03-23T09:41:08;3.75;;;0.63;;
54849;SDS011;47660;51.334;12.396;2024-03-23T09:43:34;1.10;;;0.50;;
54849;SDS011;47660;51.334;12.396;2024-03-23T09:46:01;1.00;;;0.55;;
54849;SDS011;47660;51.334;12.396;2024-03-23T09:48:27;1.40;;;0.45;;
54849;SDS011;47660;51.334;12.396;2024-03-23T09:50:53;1.02;;;0.45;;
54849;SDS011;47660;51.334;12.396;2024-03-23T09:53:18;1.30;;;0.70;;
54849;SDS011;47660;51.334;12.396;2024-03-23T09:55:44;2.67;;;0.60;;
54849;SDS011;47660;51.334;12.396;2024-03-23T09:58:13;0.90;;;0.50;;
54849;SDS011;47660;51.334;12.396;2024-03-23T10:00:40;0.93;;;0.60;;
54849;SDS011;47660;51.334;12.396;2024-03-23T10:03:05;1.20;;;0.47;;
54849;SDS011;47660;51.334;12.396;2024-03-23T10:05:31;0.52;;;0.47;;
54849;SDS011;47660;51.334;12.396;2024-03-23T10:07:59;2.03;;;0.88;;
54849;SDS011;47660;51.334;12.396;2024-03-23T10:10:25;0.47;;;0.47;;
54849;SDS011;47660;51.334;12.396;2024-03-23T10:12:51;1.65;;;0.55;;
54849;SDS011;47660;51.334;12.396;2024-03-23T10:15:17;0.93;;;0.40;;
54849;SDS011;47660;51.334;12.396;2024-03-23T10:17:44;1.42;;;0.73;;
54849;SDS011;47660;51.334;12.396;2024-03-23T10:20:10;0.35;;;0.35;;
54849;SDS011;47660;51.334;12.396;2024-03-23T10:22:37;0.50;;;0.50;;
54849;SDS011;47660;51.334;12.396;2024-03-23T10:25:07;1.58;;;0.40;;
54849;SDS011;47660;51.334;12.396;2024-03-23T10:27:33;0.30;;;0.28;;
54849;SDS011;47660;51.334;12.396;2024-03-23T10:30:07;0.30;;;0.30;;
54849;SDS011;47660;51.334;12.396;2024-03-23T10:32:34;0.83;;;0.57;;
54849;SDS011;47660;51.334;12.396;2024-03-23T10:35:19;0.68;;;0.50;;
54849;SDS011;47660;51.334;12.396;2024-03-23T10:37:47;0.65;;;0.55;;
54849;SDS011;47660;51.334;12.396;2024-03-23T10:40:14;0.85;;;0.80;;
54849;SDS011;47660;51.334;12.396;2024-03-23T10:42:40;1.23;;;1.05;;
54849;SDS011;47660;51.334;12.396;2024-03-23T10:45:06;3.22;;;1.60;;
54849;SDS011;47660;51.334;12.396;2024-03-23T10:47:36;2.15;;;1.58;;
54849;SDS011;47660;51.334;12.396;2024-03-23T10:50:05;3.03;;;1.98;;
54849;SDS011;47660;51.334;12.396;2024-03-23T10:52:31;1.95;;;1.38;;
54849;SDS011;47660;51.334;12.396;2024-03-23T10:54:57;1.60;;;1.40;;
54849;SDS011;47660;51.334;12.396;2024-03-23T10:57:26;1.88;;;1.13;;
54849;SDS011;47660;51.334;12.396;2024-03-23T10:59:57;1.88;;;1.55;;
54849;SDS011;47660;51.334;12.396;2024-03-23T11:02:23;1.60;;;1.27;;
54849;SDS011;47660;51.334;12.396;2024-03-23T11:04:51;1.83;;;1.33;;
54849;SDS011;47660;51.334;12.396;2024-03-23T11:09:49;2.15;;;1.25;;
54849;SDS011;47660;51.334;12.396;2024-03-23T11:14:44;1.77;;;1.30;;
54849;SDS011;47660;51.334;12.396;2024-03-23T11:17:10;1.42;;;1.13;;
54849;SDS011;47660;51.334;12.396;2024-03-23T11:19:36;0.68;;;0.63;;
54849;SDS011;47660;51.334;12.396;2024-03-23T11:22:02;0.93;;;0.65;;
54849;SDS011;47660;51.334;12.396;2024-03-23T11:24:31;1.20;;;0.80;;
54849;SDS011;47660;51.334;12.396;2024-03-23T11:26:56;1.15;;;0.70;;
54849;SDS011;47660;51.334;12.396;2024-03-23T11:29:25;1.95;;;1.02;;
54849;SDS011;47660;51.334;12.396;2024-03-23T11:31:51;3.70;;;1.15;;
54849;SDS011;47660;51.334;12.396;2024-03-23T11:34:18;2.88;;;0.80;;
54849;SDS011;47660;51.334;12.396;2024-03-23T11:36:47;2.05;;;0.98;;
54849;SDS011;47660;51.334;12.396;2024-03-23T11:39:15;1.85;;;0.70;;
54849;SDS011;47660;51.334;12.396;2024-03-23T11:41:48;3.17;;;0.70;;
54849;SDS011;47660;51.334;12.396;2024-03-23T11:44:18;1.42;;;0.55;;
54849;SDS011;47660;51.334;12.396;2024-03-23T11:46:44;1.77;;;0.70;;
54849;SDS011;47660;51.334;12.396;2024-03-23T11:49:20;1.15;;;0.63;;
54849;SDS011;47660;51.334;12.396;2024-03-23T11:51:52;0.77;;;0.40;;
54849;SDS011;47660;51.334;12.396;2024-03-23T11:54:26;2.28;;;0.70;;
54849;SDS011;47660;51.334;12.396;2024-03-23T11:56:58;1.77;;;0.80;;
54849;SDS011;47660;51.334;12.396;2024-03-23T11:59:33;2.97;;;0.65;;
54849;SDS011;47660;51.334;12.396;2024-03-23T12:02:20;2.65;;;0.77;;
54849;SDS011;47660;51.334;12.396;2024-03-23T12:04:46;1.95;;;0.52;;
54849;SDS011;47660;51.334;12.396;2024-03-23T12:07:12;1.57;;;0.70;;
54849;SDS011;47660;51.334;12.396;2024-03-23T12:09:41;1.38;;;0.55;;
54849;SDS011;47660;51.334;12.396;2024-03-23T12:12:16;2.35;;;0.70;;
54849;SDS011;47660;51.334;12.396;2024-03-23T12:14:45;1.27;;;0.60;;
54849;SDS011;47660;51.334;12.396;2024-03-23T12:17:26;1.45;;;0.55;;
54849;SDS011;47660;51.334;12.396;2024-03-23T12:19:52;3.08;;;0.73;;
54849;SDS011;47660;51.334;12.396;2024-03-23T12:22:21;1.27;;;0.73;;
54849;SDS011;47660;51.334;12.396;2024-03-23T12:24:47;0.93;;;0.57;;
54849;SDS011;47660;51.334;12.396;2024-03-23T12:27:13;0.70;;;0.50;;
54849;SDS011;47660;51.334;12.396;2024-03-23T12:29:38;1.63;;;0.40;;
54849;SDS011;47660;51.334;12.396;2024-03-23T12:32:04;2.70;;;0.50;;
54849;SDS011;47660;51.334;12.396;2024-03-23T12:34:29;1.23;;;0.52;;
54849;SDS011;47660;51.334;12.396;2024-03-23T12:36:55;1.40;;;0.60;;
54849;SDS011;47660;51.334;12.396;2024-03-23T12:39:21;2.40;;;0.88;;
54849;SDS011;47660;51.334;12.396;2024-03-23T12:41:46;2.10;;;0.65;;
54849;SDS011;47660;51.334;12.396;2024-03-23T12:44:12;1.92;;;0.60;;
54849;SDS011;47660;51.334;12.396;2024-03-23T12:46:38;2.20;;;0.73;;
54849;SDS011;47660;51.334;12.396;2024-03-23T12:49:04;1.80;;;0.73;;
54849;SDS011;47660;51.334;12.396;2024-03-23T12:51:30;1.70;;;0.77;;
54849;SDS011;47660;51.334;12.396;2024-03-23T12:53:55;1.87;;;0.90;;
54849;SDS011;47660;51.334;12.396;2024-03-23T12:56:20;1.63;;;0.90;;
54849;SDS011;47660;51.334;12.396;2024-03-23T12:58:46;1.92;;;0.80;;
54849;SDS011;47660;51.334;12.396;2024-03-23T13:01:16;0.73;;;0.73;;
54849;SDS011;47660;51.334;12.396;2024-03-23T13:03:41;2.50;;;1.10;;
54849;SDS011;47660;51.334;12.396;2024-03-23T13:06:06;2.40;;;1.10;;
54849;SDS011;47660;51.334;12.396;2024-03-23T13:08:33;3.25;;;1.35;;
54849;SDS011;47660;51.334;12.396;2024-03-23T13:10:59;4.22;;;1.40;;
54849;SDS011;47660;51.334;12.396;2024-03-23T13:13:24;2.87;;;1.53;;
54849;SDS011;47660;51.334;12.396;2024-03-23T13:15:52;3.13;;;2.03;;
54849;SDS011;47660;51.334;12.396;2024-03-23T13:18:17;3.85;;;1.70;;
54849;SDS011;47660;51.334;12.396;2024-03-23T13:20:43;7.63;;;1.85;;
54849;SDS011;47660;51.334;12.396;2024-03-23T13:23:09;3.13;;;1.60;;
54849;SDS011;47660;51.334;12.396;2024-03-23T13:25:34;4.22;;;1.88;;
54849;SDS011;47660;51.334;12.396;2024-03-23T13:27:59;4.82;;;1.60;;
54849;SDS011;47660;51.334;12.396;2024-03-23T13:30:26;3.13;;;1.58;;
54849;SDS011;47660;51.334;12.396;2024-03-23T13:32:51;4.47;;;1.65;;
54849;SDS011;47660;51.334;12.396;2024-03-23T13:35:16;1.58;;;1.25;;
54849;SDS011;47660;51.334;12.396;2024-03-23T13:37:41;3.72;;;1.33;;
54849;SDS011;47660;51.334;12.396;2024-03-23T13:40:07;2.50;;;1.50;;
54849;SDS011;47660;51.334;12.396;2024-03-23T13:42:33;3.53;;;1.85;;
54849;SDS011;47660;51.334;12.396;2024-03-23T13:44:58;3.30;;;1.40;;
54849;SDS011;47660;51.334;12.396;2024-03-23T13:47:23;5.03;;;1.77;;
54849;SDS011;47660;51.334;12.396;2024-03-23T13:49:49;3.00;;;1.40;;
54849;SDS011;47660;51.334;12.396;2024-03-23T13:52:14;5.88;;;1.67;;
54849;SDS011;47660;51.334;12.396;2024-03-23T13:54:39;5.55;;;1.67;;
54849;SDS011;47660;51.334;12.396;2024-03-23T13:57:10;3.63;;;1.38;;
54849;SDS011;47660;51.334;12.396;2024-03-23T13:59:35;8.55;;;1.92;;
54849;SDS011;47660;51.334;12.396;2024-03-23T14:02:01;4.60;;;1.77;;
54849;SDS011;47660;51.334;12.396;2024-03-23T14:04:26;6.20;;;2.10;;
54849;SDS011;47660;51.334;12.396;2024-03-23T14:06:51;4.05;;;1.67;;
54849;SDS011;47660;51.334;12.396;2024-03-23T14:09:17;2.88;;;1.60;;
54849;SDS011;47660;51.334;12.396;2024-03-23T14:11:46;4.43;;;1.80;;
54849;SDS011;47660;51.334;12.396;2024-03-23T14:14:12;5.25;;;2.03;;
54849;SDS011;47660;51.334;12.396;2024-03-23T14:16:37;3.00;;;1.90;;
54849;SDS011;47660;51.334;12.396;2024-03-23T14:19:03;4.07;;;2.00;;
54849;SDS011;47660;51.334;12.396;2024-03-23T14:21:30;4.53;;;1.95;;
54849;SDS011;47660;51.334;12.396;2024-03-23T14:23:55;4.78;;;2.13;;
54849;SDS011;47660;51.334;12.396;2024-03-23T14:26:21;5.60;;;1.98;;
54849;SDS011;47660;51.334;12.396;2024-03-23T14:28:46;4.75;;;2.50;;
54849;SDS011;47660;51.334;12.396;2024-03-23T14:31:11;8.80;;;2.42;;
54849;SDS011;47660;51.334;12.396;2024-03-23T14:33:37;5.18;;;2.25;;
54849;SDS011;47660;51.334;12.396;2024-03-23T14:36:03;2.15;;;1.58;;
54849;SDS011;47660;51.334;12.396;2024-03-23T14:38:29;3.08;;;1.10;;
54849;SDS011;47660;51.334;12.396;2024-03-23T14:40:57;3.35;;;1.60;;
54849;SDS011;47660;51.334;12.396;2024-03-23T14:43:24;2.88;;;1.45;;
54849;SDS011;47660;51.334;12.396;2024-03-23T14:46:08;1.73;;;1.10;;
54849;SDS011;47660;51.334;12.396;2024-03-23T14:48:34;1.85;;;1.02;;
54849;SDS011;47660;51.334;12.396;2024-03-23T14:51:00;3.30;;;1.50;;
54849;SDS011;47660;51.334;12.396;2024-03-23T14:53:26;3.00;;;1.30;;
54849;SDS011;47660;51.334;12.396;2024-03-23T14:55:55;2.20;;;1.40;;
54849;SDS011;47660;51.334;12.396;2024-03-23T14:58:21;2.78;;;1.73;;
54849;SDS011;47660;51.334;12.396;2024-03-23T15:00:47;2.80;;;1.42;;
54849;SDS011;47660;51.334;12.396;2024-03-23T15:03:13;1.98;;;1.30;;
54849;SDS011;47660;51.334;12.396;2024-03-23T15:05:38;2.42;;;1.25;;
54849;SDS011;47660;51.334;12.396;2024-03-23T15:08:03;2.38;;;1.15;;
54849;SDS011;47660;51.334;12.396;2024-03-23T15:10:29;2.33;;;1.30;;
54849;SDS011;47660;51.334;12.396;2024-03-23T15:12:54;1.75;;;1.25;;
54849;SDS011;47660;51.334;12.396;2024-03-23T15:15:20;3.65;;;1.15;;
54849;SDS011;47660;51.334;12.396;2024-03-23T15:17:45;2.70;;;1.20;;
54849;SDS011;47660;51.334;12.396;2024-03-23T15:20:10;3.85;;;1.33;;
54849;SDS011;47660;51.334;12.396;2024-03-23T15:22:38;2.63;;;1.13;;
54849;SDS011;47660;51.334;12.396;2024-03-23T15:25:04;1.30;;;0.80;;
54849;SDS011;47660;51.334;12.396;2024-03-23T15:27:29;1.95;;;1.08;;